sensor_id;sensor_type;location;lat;lon;timestamp;temperature;humidity
18932;DHT22;9598;50.954;3.112;2022-10-16T00:02:28;15.40;99.90
18932;DHT22;9598;50.954;3.112;2022-10-16T00:07:30;15.40;99.90
18932;DHT22;9598;50.954;3.112;2022-10-16T00:12:33;15.40;99.90
18932;DHT22;9598;50.954;3.112;2022-10-16T00:17:35;15.30;99.90
18932;DHT22;9598;50.954;3.112;2022-10-16T00:22:37;15.30;99.90
18932;DHT22;9598;50.954;3.112;2022-10-16T00:27:40;15.20;99.90
18932;DHT22;9598;50.954;3.112;2022-10-16T00:32:42;15.20;99.90
18932;DHT22;9598;50.954;3.112;2022-10-16T00:37:44;15.20;99.90
18932;DHT22;9598;50.954;3.112;2022-10-16T00:42:48;15.10;99.90
18932;DHT22;9598;50.954;3.112;2022-10-16T00:47:51;15.10;99.90
18932;DHT22;9598;50.954;3.112;2022-10-16T00:52:55;15.10;99.90
18932;DHT22;9598;50.954;3.112;2022-10-16T00:57:59;15.00;99.90
18932;DHT22;9598;50.954;3.112;2022-10-16T01:03:03;15.00;99.90
18932;DHT22;9598;50.954;3.112;2022-10-16T01:08:28;15.00;99.90
18932;DHT22;9598;50.954;3.112;2022-10-16T01:13:41;15.00;99.90
18932;DHT22;9598;50.954;3.112;2022-10-16T01:18:46;14.90;99.90
18932;DHT22;9598;50.954;3.112;2022-10-16T01:24:00;14.90;99.90
18932;DHT22;9598;50.954;3.112;2022-10-16T01:29:09;14.80;99.90
18932;DHT22;9598;50.954;3.112;2022-10-16T01:34:17;14.80;99.90
18932;DHT22;9598;50.954;3.112;2022-10-16T01:39:24;14.80;99.90
18932;DHT22;9598;50.954;3.112;2022-10-16T01:44:31;14.80;99.90
18932;DHT22;9598;50.954;3.112;2022-10-16T01:49:36;14.80;99.90
18932;DHT22;9598;50.954;3.112;2022-10-16T01:54:41;14.70;99.90
18932;DHT22;9598;50.954;3.112;2022-10-16T01:59:47;14.70;99.90
18932;DHT22;9598;50.954;3.112;2022-10-16T02:04:55;14.70;99.90
18932;DHT22;9598;50.954;3.112;2022-10-16T02:10:00;14.70;99.90
18932;DHT22;9598;50.954;3.112;2022-10-16T02:15:05;14.70;99.90
18932;DHT22;9598;50.954;3.112;2022-10-16T02:20:07;14.70;99.90
18932;DHT22;9598;50.954;3.112;2022-10-16T02:25:11;14.70;99.90
18932;DHT22;9598;50.954;3.112;2022-10-16T02:30:21;14.70;99.90
18932;DHT22;9598;50.954;3.112;2022-10-16T02:35:24;14.80;99.90
18932;DHT22;9598;50.954;3.112;2022-10-16T02:40:27;14.80;99.90
18932;DHT22;9598;50.954;3.112;2022-10-16T02:45:31;14.70;99.90
18932;DHT22;9598;50.954;3.112;2022-10-16T02:50:34;14.70;99.90
18932;DHT22;9598;50.954;3.112;2022-10-16T02:55:36;14.70;99.90
18932;DHT22;9598;50.954;3.112;2022-10-16T03:00:39;14.70;99.90
18932;DHT22;9598;50.954;3.112;2022-10-16T03:05:43;14.60;99.90
18932;DHT22;9598;50.954;3.112;2022-10-16T03:10:46;14.60;99.90
18932;DHT22;9598;50.954;3.112;2022-10-16T03:15:50;14.60;99.90
18932;DHT22;9598;50.954;3.112;2022-10-16T03:20:52;14.60;99.90
18932;DHT22;9598;50.954;3.112;2022-10-16T03:25:54;14.50;99.90
18932;DHT22;9598;50.954;3.112;2022-10-16T03:30:57;14.50;99.90
18932;DHT22;9598;50.954;3.112;2022-10-16T03:35:59;14.50;99.90
18932;DHT22;9598;50.954;3.112;2022-10-16T03:41:01;14.50;99.90
18932;DHT22;9598;50.954;3.112;2022-10-16T03:46:05;14.40;99.90
18932;DHT22;9598;50.954;3.112;2022-10-16T03:51:10;14.40;99.90
18932;DHT22;9598;50.954;3.112;2022-10-16T03:56:14;14.40;99.90
18932;DHT22;9598;50.954;3.112;2022-10-16T04:01:18;14.40;99.90
18932;DHT22;9598;50.954;3.112;2022-10-16T04:06:20;14.30;99.90
18932;DHT22;9598;50.954;3.112;2022-10-16T04:11:22;14.30;99.90
18932;DHT22;9598;50.954;3.112;2022-10-16T04:16:25;14.30;99.90
18932;DHT22;9598;50.954;3.112;2022-10-16T04:21:27;14.20;99.90
18932;DHT22;9598;50.954;3.112;2022-10-16T04:26:30;14.20;99.90
18932;DHT22;9598;50.954;3.112;2022-10-16T04:31:33;14.20;99.90
18932;DHT22;9598;50.954;3.112;2022-10-16T04:36:35;14.30;99.90
18932;DHT22;9598;50.954;3.112;2022-10-16T04:41:37;14.30;99.90
18932;DHT22;9598;50.954;3.112;2022-10-16T04:46:41;14.30;99.90
18932;DHT22;9598;50.954;3.112;2022-10-16T04:51:43;14.30;99.90
18932;DHT22;9598;50.954;3.112;2022-10-16T04:56:45;14.30;99.90
18932;DHT22;9598;50.954;3.112;2022-10-16T05:01:50;14.30;99.90
18932;DHT22;9598;50.954;3.112;2022-10-16T05:06:52;14.40;99.90
18932;DHT22;9598;50.954;3.112;2022-10-16T05:11:54;14.40;99.90
18932;DHT22;9598;50.954;3.112;2022-10-16T05:16:57;14.40;99.90
18932;DHT22;9598;50.954;3.112;2022-10-16T05:21:59;14.40;99.90
18932;DHT22;9598;50.954;3.112;2022-10-16T05:27:01;14.30;99.90
18932;DHT22;9598;50.954;3.112;2022-10-16T05:32:04;14.30;99.90
18932;DHT22;9598;50.954;3.112;2022-10-16T05:37:06;14.30;99.90
18932;DHT22;9598;50.954;3.112;2022-10-16T05:42:09;14.20;99.90
18932;DHT22;9598;50.954;3.112;2022-10-16T05:47:13;14.20;99.90
18932;DHT22;9598;50.954;3.112;2022-10-16T05:52:15;14.20;99.90
18932;DHT22;9598;50.954;3.112;2022-10-16T05:57:18;14.20;99.90
18932;DHT22;9598;50.954;3.112;2022-10-16T06:02:21;14.20;99.90
18932;DHT22;9598;50.954;3.112;2022-10-16T06:07:23;14.20;99.90
18932;DHT22;9598;50.954;3.112;2022-10-16T06:12:27;14.20;99.90
18932;DHT22;9598;50.954;3.112;2022-10-16T06:17:30;14.20;99.90
18932;DHT22;9598;50.954;3.112;2022-10-16T06:22:32;14.20;99.90
18932;DHT22;9598;50.954;3.112;2022-10-16T06:27:34;14.20;99.90
18932;DHT22;9598;50.954;3.112;2022-10-16T06:32:37;14.10;99.90
18932;DHT22;9598;50.954;3.112;2022-10-16T06:37:39;14.10;99.90
18932;DHT22;9598;50.954;3.112;2022-10-16T06:42:41;14.10;99.90
18932;DHT22;9598;50.954;3.112;2022-10-16T06:47:45;14.20;99.90
18932;DHT22;9598;50.954;3.112;2022-10-16T06:52:47;14.10;99.90
18932;DHT22;9598;50.954;3.112;2022-10-16T06:57:49;14.10;99.90
18932;DHT22;9598;50.954;3.112;2022-10-16T07:02:52;14.10;99.90
18932;DHT22;9598;50.954;3.112;2022-10-16T07:07:54;14.10;99.90
18932;DHT22;9598;50.954;3.112;2022-10-16T07:12:56;14.10;99.90
18932;DHT22;9598;50.954;3.112;2022-10-16T07:18:00;14.10;99.90
18932;DHT22;9598;50.954;3.112;2022-10-16T07:23:02;14.00;99.90
18932;DHT22;9598;50.954;3.112;2022-10-16T07:28:04;14.10;99.90
18932;DHT22;9598;50.954;3.112;2022-10-16T07:33:07;14.10;99.90
18932;DHT22;9598;50.954;3.112;2022-10-16T07:38:09;14.10;99.90
18932;DHT22;9598;50.954;3.112;2022-10-16T07:43:12;14.10;99.90
18932;DHT22;9598;50.954;3.112;2022-10-16T07:48:16;14.10;99.90
18932;DHT22;9598;50.954;3.112;2022-10-16T07:53:18;14.20;99.90
18932;DHT22;9598;50.954;3.112;2022-10-16T07:58:20;14.20;99.90
18932;DHT22;9598;50.954;3.112;2022-10-16T08:03:23;14.30;99.90
18932;DHT22;9598;50.954;3.112;2022-10-16T08:08:26;14.40;99.90
18932;DHT22;9598;50.954;3.112;2022-10-16T08:13:28;14.40;99.90
18932;DHT22;9598;50.954;3.112;2022-10-16T08:18:31;14.40;99.90
18932;DHT22;9598;50.954;3.112;2022-10-16T08:23:33;14.50;99.90
18932;DHT22;9598;50.954;3.112;2022-10-16T08:28:35;14.60;99.90
18932;DHT22;9598;50.954;3.112;2022-10-16T08:33:41;14.70;99.90
18932;DHT22;9598;50.954;3.112;2022-10-16T08:38:43;14.80;99.90
18932;DHT22;9598;50.954;3.112;2022-10-16T08:44:00;14.90;99.90
18932;DHT22;9598;50.954;3.112;2022-10-16T08:49:09;15.00;99.90
18932;DHT22;9598;50.954;3.112;2022-10-16T08:54:22;15.10;99.90
18932;DHT22;9598;50.954;3.112;2022-10-16T08:59:27;15.20;99.90
18932;DHT22;9598;50.954;3.112;2022-10-16T09:04:47;15.30;99.90
18932;DHT22;9598;50.954;3.112;2022-10-16T09:15:23;15.50;99.90
18932;DHT22;9598;50.954;3.112;2022-10-16T09:20:34;15.80;99.90
18932;DHT22;9598;50.954;3.112;2022-10-16T09:25:43;16.00;99.90
18932;DHT22;9598;50.954;3.112;2022-10-16T09:30:46;16.20;99.90
18932;DHT22;9598;50.954;3.112;2022-10-16T09:35:52;16.30;99.90
18932;DHT22;9598;50.954;3.112;2022-10-16T09:40:55;16.50;99.90
18932;DHT22;9598;50.954;3.112;2022-10-16T09:45:59;16.60;99.90
18932;DHT22;9598;50.954;3.112;2022-10-16T09:51:05;16.70;99.90
18932;DHT22;9598;50.954;3.112;2022-10-16T09:56:09;16.80;99.90
18932;DHT22;9598;50.954;3.112;2022-10-16T10:01:15;16.80;99.90
18932;DHT22;9598;50.954;3.112;2022-10-16T10:06:24;16.90;99.90
18932;DHT22;9598;50.954;3.112;2022-10-16T10:11:40;17.00;99.90
18932;DHT22;9598;50.954;3.112;2022-10-16T10:16:43;17.10;99.90
18932;DHT22;9598;50.954;3.112;2022-10-16T10:21:47;17.20;99.90
18932;DHT22;9598;50.954;3.112;2022-10-16T10:26:54;17.30;99.90
18932;DHT22;9598;50.954;3.112;2022-10-16T10:32:09;17.40;99.90
18932;DHT22;9598;50.954;3.112;2022-10-16T10:37:25;17.50;99.90
18932;DHT22;9598;50.954;3.112;2022-10-16T10:42:35;17.50;99.90
18932;DHT22;9598;50.954;3.112;2022-10-16T10:47:49;17.60;99.90
18932;DHT22;9598;50.954;3.112;2022-10-16T10:53:05;17.70;99.90
18932;DHT22;9598;50.954;3.112;2022-10-16T10:58:29;17.70;99.90
18932;DHT22;9598;50.954;3.112;2022-10-16T11:04:08;17.80;99.90
18932;DHT22;9598;50.954;3.112;2022-10-16T11:09:19;17.90;99.90
18932;DHT22;9598;50.954;3.112;2022-10-16T11:14:25;17.90;99.90
18932;DHT22;9598;50.954;3.112;2022-10-16T11:19:37;18.00;99.90
18932;DHT22;9598;50.954;3.112;2022-10-16T11:24:45;18.20;99.90
18932;DHT22;9598;50.954;3.112;2022-10-16T11:29:55;18.40;99.90
18932;DHT22;9598;50.954;3.112;2022-10-16T11:35:03;18.60;99.90
18932;DHT22;9598;50.954;3.112;2022-10-16T11:40:19;18.70;99.90
18932;DHT22;9598;50.954;3.112;2022-10-16T11:45:28;18.70;99.90
18932;DHT22;9598;50.954;3.112;2022-10-16T11:50:35;18.80;99.90
18932;DHT22;9598;50.954;3.112;2022-10-16T11:55:43;19.00;99.90
18932;DHT22;9598;50.954;3.112;2022-10-16T12:00:47;19.00;99.90
18932;DHT22;9598;50.954;3.112;2022-10-16T12:06:02;19.00;99.90
18932;DHT22;9598;50.954;3.112;2022-10-16T12:11:22;18.90;99.90
18932;DHT22;9598;50.954;3.112;2022-10-16T12:16:25;18.90;99.90
18932;DHT22;9598;50.954;3.112;2022-10-16T12:21:30;19.00;99.90
18932;DHT22;9598;50.954;3.112;2022-10-16T12:26:37;19.10;99.90
18932;DHT22;9598;50.954;3.112;2022-10-16T12:31:43;19.20;99.90
18932;DHT22;9598;50.954;3.112;2022-10-16T12:36:46;19.20;99.90
18932;DHT22;9598;50.954;3.112;2022-10-16T12:42:00;19.40;99.90
18932;DHT22;9598;50.954;3.112;2022-10-16T12:47:02;19.50;99.90
18932;DHT22;9598;50.954;3.112;2022-10-16T12:52:28;19.50;99.90
18932;DHT22;9598;50.954;3.112;2022-10-16T12:57:43;19.60;99.90
18932;DHT22;9598;50.954;3.112;2022-10-16T13:03:04;19.60;99.90
18932;DHT22;9598;50.954;3.112;2022-10-16T13:08:24;19.60;99.90
18932;DHT22;9598;50.954;3.112;2022-10-16T13:13:41;19.50;99.90
18932;DHT22;9598;50.954;3.112;2022-10-16T13:18:58;19.50;99.90
18932;DHT22;9598;50.954;3.112;2022-10-16T13:24:11;19.50;99.90
18932;DHT22;9598;50.954;3.112;2022-10-16T13:29:18;19.50;99.90
18932;DHT22;9598;50.954;3.112;2022-10-16T13:34:22;19.40;99.90
18932;DHT22;9598;50.954;3.112;2022-10-16T13:39:26;19.50;99.90
18932;DHT22;9598;50.954;3.112;2022-10-16T13:44:34;19.40;99.90
18932;DHT22;9598;50.954;3.112;2022-10-16T13:49:37;19.40;99.90
18932;DHT22;9598;50.954;3.112;2022-10-16T13:54:39;19.40;99.90
18932;DHT22;9598;50.954;3.112;2022-10-16T13:59:43;19.30;99.90
18932;DHT22;9598;50.954;3.112;2022-10-16T14:04:46;19.30;99.90
18932;DHT22;9598;50.954;3.112;2022-10-16T14:09:49;19.30;99.90
18932;DHT22;9598;50.954;3.112;2022-10-16T14:14:54;19.30;99.90
18932;DHT22;9598;50.954;3.112;2022-10-16T14:19:58;19.30;99.90
18932;DHT22;9598;50.954;3.112;2022-10-16T14:25:02;19.30;99.90
18932;DHT22;9598;50.954;3.112;2022-10-16T14:30:16;19.20;99.90
18932;DHT22;9598;50.954;3.112;2022-10-16T14:35:24;19.10;99.90
18932;DHT22;9598;50.954;3.112;2022-10-16T14:40:27;19.10;99.90
18932;DHT22;9598;50.954;3.112;2022-10-16T14:45:33;19.10;99.90
18932;DHT22;9598;50.954;3.112;2022-10-16T14:50:36;19.00;99.90
18932;DHT22;9598;50.954;3.112;2022-10-16T14:55:38;19.10;99.90
18932;DHT22;9598;50.954;3.112;2022-10-16T15:00:42;19.00;99.90
18932;DHT22;9598;50.954;3.112;2022-10-16T15:05:44;19.00;99.90
18932;DHT22;9598;50.954;3.112;2022-10-16T15:10:46;19.00;99.90
18932;DHT22;9598;50.954;3.112;2022-10-16T15:15:50;18.90;99.90
18932;DHT22;9598;50.954;3.112;2022-10-16T15:20:52;18.90;99.90
18932;DHT22;9598;50.954;3.112;2022-10-16T15:25:55;18.90;99.90
18932;DHT22;9598;50.954;3.112;2022-10-16T15:30:58;18.90;99.90
18932;DHT22;9598;50.954;3.112;2022-10-16T15:36:02;18.80;99.90
18932;DHT22;9598;50.954;3.112;2022-10-16T15:41:05;18.80;99.90
18932;DHT22;9598;50.954;3.112;2022-10-16T15:46:11;18.80;99.90
18932;DHT22;9598;50.954;3.112;2022-10-16T15:51:15;18.80;99.90
18932;DHT22;9598;50.954;3.112;2022-10-16T15:56:17;18.80;99.90
18932;DHT22;9598;50.954;3.112;2022-10-16T16:01:21;18.80;99.90
18932;DHT22;9598;50.954;3.112;2022-10-16T16:06:23;18.70;99.90
18932;DHT22;9598;50.954;3.112;2022-10-16T16:11:25;18.70;99.90
18932;DHT22;9598;50.954;3.112;2022-10-16T16:16:28;18.70;99.90
18932;DHT22;9598;50.954;3.112;2022-10-16T16:21:30;18.70;99.90
18932;DHT22;9598;50.954;3.112;2022-10-16T16:26:32;18.70;99.90
18932;DHT22;9598;50.954;3.112;2022-10-16T16:31:38;18.70;99.90
18932;DHT22;9598;50.954;3.112;2022-10-16T16:36:40;18.60;99.90
18932;DHT22;9598;50.954;3.112;2022-10-16T16:41:42;18.60;99.90
18932;DHT22;9598;50.954;3.112;2022-10-16T16:46:47;18.60;99.90
18932;DHT22;9598;50.954;3.112;2022-10-16T16:51:49;18.60;99.90
18932;DHT22;9598;50.954;3.112;2022-10-16T16:56:51;18.50;99.90
18932;DHT22;9598;50.954;3.112;2022-10-16T17:01:54;18.50;99.90
18932;DHT22;9598;50.954;3.112;2022-10-16T17:06:56;18.50;99.90
18932;DHT22;9598;50.954;3.112;2022-10-16T17:11:58;18.40;99.90
18932;DHT22;9598;50.954;3.112;2022-10-16T17:17:02;18.40;99.90
18932;DHT22;9598;50.954;3.112;2022-10-16T17:22:06;18.30;99.90
18932;DHT22;9598;50.954;3.112;2022-10-16T17:27:08;18.30;99.90
18932;DHT22;9598;50.954;3.112;2022-10-16T17:32:13;18.30;99.90
18932;DHT22;9598;50.954;3.112;2022-10-16T17:37:15;18.30;99.90
18932;DHT22;9598;50.954;3.112;2022-10-16T17:42:17;18.20;99.90
18932;DHT22;9598;50.954;3.112;2022-10-16T17:47:20;18.20;99.90
18932;DHT22;9598;50.954;3.112;2022-10-16T17:52:22;18.20;99.90
18932;DHT22;9598;50.954;3.112;2022-10-16T17:57:25;18.20;99.90
18932;DHT22;9598;50.954;3.112;2022-10-16T18:02:28;18.10;99.90
18932;DHT22;9598;50.954;3.112;2022-10-16T18:07:30;18.00;99.90
18932;DHT22;9598;50.954;3.112;2022-10-16T18:12:33;17.90;99.90
18932;DHT22;9598;50.954;3.112;2022-10-16T18:17:37;17.90;99.90
18932;DHT22;9598;50.954;3.112;2022-10-16T18:22:39;17.80;99.90
18932;DHT22;9598;50.954;3.112;2022-10-16T18:27:41;17.70;99.90
18932;DHT22;9598;50.954;3.112;2022-10-16T18:32:44;17.60;99.90
18932;DHT22;9598;50.954;3.112;2022-10-16T18:37:46;17.70;99.90
18932;DHT22;9598;50.954;3.112;2022-10-16T18:42:48;17.60;99.90
18932;DHT22;9598;50.954;3.112;2022-10-16T18:47:51;17.50;99.90
18932;DHT22;9598;50.954;3.112;2022-10-16T18:52:53;17.50;99.90
18932;DHT22;9598;50.954;3.112;2022-10-16T18:57:55;17.50;99.90
18932;DHT22;9598;50.954;3.112;2022-10-16T19:02:59;17.50;99.90
18932;DHT22;9598;50.954;3.112;2022-10-16T19:08:01;17.50;99.90
18932;DHT22;9598;50.954;3.112;2022-10-16T19:13:03;17.50;99.90
18932;DHT22;9598;50.954;3.112;2022-10-16T19:18:06;17.50;99.90
18932;DHT22;9598;50.954;3.112;2022-10-16T19:23:08;17.50;99.90
18932;DHT22;9598;50.954;3.112;2022-10-16T19:28:10;17.50;99.90
18932;DHT22;9598;50.954;3.112;2022-10-16T19:33:14;17.50;99.90
18932;DHT22;9598;50.954;3.112;2022-10-16T19:38:16;17.50;99.90
18932;DHT22;9598;50.954;3.112;2022-10-16T19:43:18;17.50;99.90
18932;DHT22;9598;50.954;3.112;2022-10-16T19:48:21;17.50;99.90
18932;DHT22;9598;50.954;3.112;2022-10-16T19:53:24;17.50;99.90
18932;DHT22;9598;50.954;3.112;2022-10-16T19:58:28;17.50;99.90
18932;DHT22;9598;50.954;3.112;2022-10-16T20:03:31;17.50;99.90
18932;DHT22;9598;50.954;3.112;2022-10-16T20:08:34;17.50;99.90
18932;DHT22;9598;50.954;3.112;2022-10-16T20:13:36;17.50;99.90
18932;DHT22;9598;50.954;3.112;2022-10-16T20:18:40;17.50;99.90
18932;DHT22;9598;50.954;3.112;2022-10-16T20:23:42;17.50;99.90
18932;DHT22;9598;50.954;3.112;2022-10-16T20:28:47;17.50;99.90
18932;DHT22;9598;50.954;3.112;2022-10-16T20:33:51;17.40;99.90
18932;DHT22;9598;50.954;3.112;2022-10-16T20:38:53;17.40;99.90
18932;DHT22;9598;50.954;3.112;2022-10-16T20:43:55;17.40;99.90
18932;DHT22;9598;50.954;3.112;2022-10-16T20:48:59;17.30;99.90
18932;DHT22;9598;50.954;3.112;2022-10-16T20:54:02;17.30;99.90
18932;DHT22;9598;50.954;3.112;2022-10-16T20:59:05;17.30;99.90
18932;DHT22;9598;50.954;3.112;2022-10-16T21:04:09;17.30;99.90
18932;DHT22;9598;50.954;3.112;2022-10-16T21:09:11;17.30;99.90
18932;DHT22;9598;50.954;3.112;2022-10-16T21:14:13;17.30;99.90
18932;DHT22;9598;50.954;3.112;2022-10-16T21:19:16;17.20;99.90
18932;DHT22;9598;50.954;3.112;2022-10-16T21:24:18;17.30;99.90
18932;DHT22;9598;50.954;3.112;2022-10-16T21:29:20;17.30;99.90
18932;DHT22;9598;50.954;3.112;2022-10-16T21:34:24;17.20;99.90
18932;DHT22;9598;50.954;3.112;2022-10-16T21:39:26;17.30;99.90
18932;DHT22;9598;50.954;3.112;2022-10-16T21:44:28;17.30;99.90
18932;DHT22;9598;50.954;3.112;2022-10-16T21:49:31;17.30;99.90
18932;DHT22;9598;50.954;3.112;2022-10-16T21:54:33;17.30;99.90
18932;DHT22;9598;50.954;3.112;2022-10-16T21:59:35;17.30;99.90
18932;DHT22;9598;50.954;3.112;2022-10-16T22:04:39;17.30;99.90
18932;DHT22;9598;50.954;3.112;2022-10-16T22:09:41;17.30;99.90
18932;DHT22;9598;50.954;3.112;2022-10-16T22:14:43;17.30;99.90
18932;DHT22;9598;50.954;3.112;2022-10-16T22:19:46;17.30;99.90
18932;DHT22;9598;50.954;3.112;2022-10-16T22:24:48;17.30;99.90
18932;DHT22;9598;50.954;3.112;2022-10-16T22:29:51;17.20;99.90
18932;DHT22;9598;50.954;3.112;2022-10-16T22:34:54;17.30;99.90
18932;DHT22;9598;50.954;3.112;2022-10-16T22:39:56;17.30;99.90
18932;DHT22;9598;50.954;3.112;2022-10-16T22:44:58;17.30;99.90
18932;DHT22;9598;50.954;3.112;2022-10-16T22:50:02;17.30;99.90
18932;DHT22;9598;50.954;3.112;2022-10-16T22:55:04;17.20;99.90
18932;DHT22;9598;50.954;3.112;2022-10-16T23:00:09;17.30;99.90
18932;DHT22;9598;50.954;3.112;2022-10-16T23:05:14;17.20;99.90
18932;DHT22;9598;50.954;3.112;2022-10-16T23:10:16;17.20;99.90
18932;DHT22;9598;50.954;3.112;2022-10-16T23:15:18;17.20;99.90
18932;DHT22;9598;50.954;3.112;2022-10-16T23:20:22;17.20;99.90
18932;DHT22;9598;50.954;3.112;2022-10-16T23:25:24;17.20;99.90
18932;DHT22;9598;50.954;3.112;2022-10-16T23:30:26;17.20;99.90
18932;DHT22;9598;50.954;3.112;2022-10-16T23:35:30;17.20;99.90
18932;DHT22;9598;50.954;3.112;2022-10-16T23:40:31;17.10;99.90
18932;DHT22;9598;50.954;3.112;2022-10-16T23:45:33;17.10;99.90
18932;DHT22;9598;50.954;3.112;2022-10-16T23:50:37;17.10;99.90
18932;DHT22;9598;50.954;3.112;2022-10-16T23:55:39;17.10;99.90
